sensor_id;sensor_type;location;lat;lon;timestamp;P1;durP1;ratioP1;P2;durP2;ratioP2
59038;SDS011;44824;43.376;19.630;2023-07-16T00:02:39;15.27;;;12.70;;
59038;SDS011;44824;43.376;19.630;2023-07-16T00:05:05;14.65;;;12.32;;
59038;SDS011;44824;43.376;19.630;2023-07-16T00:08:03;15.55;;;12.57;;
59038;SDS011;44824;43.376;19.630;2023-07-16T00:13:20;16.95;;;12.75;;
59038;SDS011;44824;43.376;19.630;2023-07-16T00:15:48;16.20;;;12.20;;
59038;SDS011;44824;43.376;19.630;2023-07-16T00:18:25;14.75;;;11.88;;
59038;SDS011;44824;43.376;19.630;2023-07-16T00:20:54;17.02;;;11.93;;
59038;SDS011;44824;43.376;19.630;2023-07-16T00:23:20;18.98;;;12.00;;
59038;SDS011;44824;43.376;19.630;2023-07-16T00:28:53;21.02;;;12.43;;
59038;SDS011;44824;43.376;19.630;2023-07-16T00:31:19;18.17;;;12.77;;
59038;SDS011;44824;43.376;19.630;2023-07-16T00:34:11;22.13;;;12.60;;
59038;SDS011;44824;43.376;19.630;2023-07-16T00:37:24;19.98;;;12.60;;
59038;SDS011;44824;43.376;19.630;2023-07-16T00:39:54;17.85;;;12.73;;
59038;SDS011;44824;43.376;19.630;2023-07-16T00:42:43;16.58;;;12.60;;
59038;SDS011;44824;43.376;19.630;2023-07-16T00:45:30;20.70;;;12.80;;
59038;SDS011;44824;43.376;19.630;2023-07-16T00:48:37;14.88;;;11.77;;
59038;SDS011;44824;43.376;19.630;2023-07-16T00:51:08;18.83;;;12.63;;
59038;SDS011;44824;43.376;19.630;2023-07-16T00:56:15;18.52;;;12.93;;
59038;SDS011;44824;43.376;19.630;2023-07-16T01:01:46;16.55;;;12.60;;
59038;SDS011;44824;43.376;19.630;2023-07-16T01:04:50;16.90;;;13.13;;
59038;SDS011;44824;43.376;19.630;2023-07-16T01:07:16;16.58;;;12.43;;
59038;SDS011;44824;43.376;19.630;2023-07-16T01:09:52;18.65;;;13.07;;
59038;SDS011;44824;43.376;19.630;2023-07-16T01:16:22;16.20;;;13.38;;
59038;SDS011;44824;43.376;19.630;2023-07-16T01:30:46;17.52;;;12.27;;
59038;SDS011;44824;43.376;19.630;2023-07-16T01:36:57;15.95;;;12.35;;
59038;SDS011;44824;43.376;19.630;2023-07-16T01:45:57;15.88;;;12.07;;
59038;SDS011;44824;43.376;19.630;2023-07-16T01:51:31;15.57;;;12.48;;
59038;SDS011;44824;43.376;19.630;2023-07-16T01:54:00;15.75;;;13.13;;
59038;SDS011;44824;43.376;19.630;2023-07-16T01:56:26;16.67;;;12.90;;
59038;SDS011;44824;43.376;19.630;2023-07-16T02:00:14;18.00;;;12.57;;
59038;SDS011;44824;43.376;19.630;2023-07-16T02:11:45;15.77;;;13.05;;
59038;SDS011;44824;43.376;19.630;2023-07-16T02:14:27;16.63;;;12.57;;
59038;SDS011;44824;43.376;19.630;2023-07-16T02:20:13;15.57;;;12.52;;
59038;SDS011;44824;43.376;19.630;2023-07-16T02:23:07;16.90;;;12.88;;
59038;SDS011;44824;43.376;19.630;2023-07-16T02:25:45;14.90;;;12.90;;
59038;SDS011;44824;43.376;19.630;2023-07-16T02:28:15;15.77;;;11.68;;
59038;SDS011;44824;43.376;19.630;2023-07-16T02:33:18;18.00;;;12.40;;
59038;SDS011;44824;43.376;19.630;2023-07-16T02:35:48;16.65;;;11.98;;
59038;SDS011;44824;43.376;19.630;2023-07-16T02:38:20;15.27;;;12.10;;
59038;SDS011;44824;43.376;19.630;2023-07-16T02:40:56;15.45;;;12.77;;
59038;SDS011;44824;43.376;19.630;2023-07-16T02:43:31;17.08;;;12.82;;
59038;SDS011;44824;43.376;19.630;2023-07-16T02:46:03;16.58;;;12.35;;
59038;SDS011;44824;43.376;19.630;2023-07-16T02:51:02;18.95;;;12.20;;
59038;SDS011;44824;43.376;19.630;2023-07-16T02:53:29;16.98;;;12.20;;
59038;SDS011;44824;43.376;19.630;2023-07-16T02:55:58;16.77;;;12.32;;
59038;SDS011;44824;43.376;19.630;2023-07-16T02:58:43;15.75;;;12.50;;
59038;SDS011;44824;43.376;19.630;2023-07-16T03:01:18;15.65;;;12.60;;
59038;SDS011;44824;43.376;19.630;2023-07-16T03:03:51;15.95;;;12.70;;
59038;SDS011;44824;43.376;19.630;2023-07-16T03:06:17;19.23;;;12.13;;
59038;SDS011;44824;43.376;19.630;2023-07-16T03:08:46;17.13;;;11.70;;
59038;SDS011;44824;43.376;19.630;2023-07-16T03:11:14;15.13;;;12.45;;
59038;SDS011;44824;43.376;19.630;2023-07-16T03:13:58;16.15;;;12.10;;
59038;SDS011;44824;43.376;19.630;2023-07-16T03:16:33;13.32;;;11.55;;
59038;SDS011;44824;43.376;19.630;2023-07-16T03:22:08;14.05;;;11.50;;
59038;SDS011;44824;43.376;19.630;2023-07-16T03:25:16;18.15;;;12.68;;
59038;SDS011;44824;43.376;19.630;2023-07-16T03:27:51;18.38;;;12.38;;
59038;SDS011;44824;43.376;19.630;2023-07-16T03:30:24;16.17;;;12.43;;
59038;SDS011;44824;43.376;19.630;2023-07-16T03:41:59;18.27;;;12.68;;
59038;SDS011;44824;43.376;19.630;2023-07-16T03:44:39;14.95;;;12.73;;
59038;SDS011;44824;43.376;19.630;2023-07-16T03:47:13;16.92;;;12.85;;
59038;SDS011;44824;43.376;19.630;2023-07-16T03:50:00;17.33;;;13.05;;
59038;SDS011;44824;43.376;19.630;2023-07-16T03:52:59;18.48;;;12.00;;
59038;SDS011;44824;43.376;19.630;2023-07-16T03:55:39;15.20;;;11.95;;
59038;SDS011;44824;43.376;19.630;2023-07-16T03:58:11;18.35;;;11.98;;
59038;SDS011;44824;43.376;19.630;2023-07-16T04:01:15;15.73;;;11.05;;
59038;SDS011;44824;43.376;19.630;2023-07-16T04:04:13;15.32;;;11.43;;
59038;SDS011;44824;43.376;19.630;2023-07-16T04:09:59;14.70;;;10.70;;
59038;SDS011;44824;43.376;19.630;2023-07-16T04:12:43;17.35;;;12.88;;
59038;SDS011;44824;43.376;19.630;2023-07-16T04:15:24;20.48;;;14.70;;
59038;SDS011;44824;43.376;19.630;2023-07-16T04:23:45;25.38;;;15.63;;
59038;SDS011;44824;43.376;19.630;2023-07-16T04:26:23;21.77;;;16.50;;
59038;SDS011;44824;43.376;19.630;2023-07-16T04:28:53;24.23;;;15.02;;
59038;SDS011;44824;43.376;19.630;2023-07-16T04:34:27;19.73;;;15.93;;
59038;SDS011;44824;43.376;19.630;2023-07-16T04:37:05;23.88;;;17.08;;
59038;SDS011;44824;43.376;19.630;2023-07-16T04:39:59;25.15;;;16.02;;
59038;SDS011;44824;43.376;19.630;2023-07-16T04:42:29;20.63;;;16.27;;
59038;SDS011;44824;43.376;19.630;2023-07-16T04:48:17;23.60;;;16.73;;
59038;SDS011;44824;43.376;19.630;2023-07-16T04:51:07;24.67;;;17.50;;
59038;SDS011;44824;43.376;19.630;2023-07-16T04:53:57;21.35;;;16.25;;
59038;SDS011;44824;43.376;19.630;2023-07-16T04:56:29;20.80;;;17.30;;
59038;SDS011;44824;43.376;19.630;2023-07-16T04:58:56;20.65;;;16.23;;
59038;SDS011;44824;43.376;19.630;2023-07-16T05:01:43;23.38;;;17.00;;
59038;SDS011;44824;43.376;19.630;2023-07-16T05:04:25;20.65;;;17.45;;
59038;SDS011;44824;43.376;19.630;2023-07-16T05:07:24;30.25;;;17.30;;
59038;SDS011;44824;43.376;19.630;2023-07-16T05:09:51;26.30;;;17.80;;
59038;SDS011;44824;43.376;19.630;2023-07-16T05:12:17;23.30;;;17.23;;
59038;SDS011;44824;43.376;19.630;2023-07-16T05:14:48;20.48;;;17.25;;
59038;SDS011;44824;43.376;19.630;2023-07-16T05:17:45;19.33;;;15.85;;
59038;SDS011;44824;43.376;19.630;2023-07-16T05:20:18;22.45;;;17.13;;
59038;SDS011;44824;43.376;19.630;2023-07-16T05:23:27;21.60;;;17.25;;
59038;SDS011;44824;43.376;19.630;2023-07-16T05:26:02;22.40;;;17.03;;
59038;SDS011;44824;43.376;19.630;2023-07-16T05:28:29;22.05;;;16.98;;
59038;SDS011;44824;43.376;19.630;2023-07-16T05:31:00;21.13;;;16.55;;
59038;SDS011;44824;43.376;19.630;2023-07-16T05:36:57;21.00;;;16.88;;
59038;SDS011;44824;43.376;19.630;2023-07-16T05:39:44;19.20;;;15.27;;
59038;SDS011;44824;43.376;19.630;2023-07-16T05:42:16;17.95;;;14.70;;
59038;SDS011;44824;43.376;19.630;2023-07-16T05:47:51;16.25;;;12.65;;
59038;SDS011;44824;43.376;19.630;2023-07-16T05:51:11;17.65;;;13.20;;
59038;SDS011;44824;43.376;19.630;2023-07-16T05:53:38;16.48;;;13.40;;
59038;SDS011;44824;43.376;19.630;2023-07-16T05:56:25;16.65;;;13.10;;
59038;SDS011;44824;43.376;19.630;2023-07-16T05:59:07;15.02;;;12.45;;
59038;SDS011;44824;43.376;19.630;2023-07-16T06:01:37;18.60;;;13.43;;
59038;SDS011;44824;43.376;19.630;2023-07-16T06:07:14;14.77;;;12.35;;
59038;SDS011;44824;43.376;19.630;2023-07-16T06:09:54;17.17;;;13.68;;
59038;SDS011;44824;43.376;19.630;2023-07-16T06:12:21;19.15;;;13.77;;
59038;SDS011;44824;43.376;19.630;2023-07-16T06:15:43;19.08;;;14.43;;
59038;SDS011;44824;43.376;19.630;2023-07-16T06:18:12;21.38;;;14.10;;
59038;SDS011;44824;43.376;19.630;2023-07-16T06:20:48;53.40;;;14.32;;
59038;SDS011;44824;43.376;19.630;2023-07-16T06:23:19;18.20;;;13.57;;
59038;SDS011;44824;43.376;19.630;2023-07-16T06:25:59;17.00;;;12.52;;
59038;SDS011;44824;43.376;19.630;2023-07-16T06:28:43;16.58;;;11.85;;
59038;SDS011;44824;43.376;19.630;2023-07-16T06:36:48;15.82;;;11.02;;
59038;SDS011;44824;43.376;19.630;2023-07-16T06:39:17;13.80;;;10.98;;
59038;SDS011;44824;43.376;19.630;2023-07-16T06:41:53;13.98;;;9.73;;
59038;SDS011;44824;43.376;19.630;2023-07-16T06:44:54;14.80;;;9.45;;
59038;SDS011;44824;43.376;19.630;2023-07-16T06:47:21;15.77;;;10.27;;
59038;SDS011;44824;43.376;19.630;2023-07-16T06:50:05;13.73;;;9.38;;
59038;SDS011;44824;43.376;19.630;2023-07-16T06:52:38;15.02;;;9.75;;
59038;SDS011;44824;43.376;19.630;2023-07-16T06:55:11;22.35;;;9.75;;
59038;SDS011;44824;43.376;19.630;2023-07-16T07:03:41;13.50;;;8.90;;
59038;SDS011;44824;43.376;19.630;2023-07-16T07:06:09;13.30;;;9.27;;
59038;SDS011;44824;43.376;19.630;2023-07-16T07:11:23;12.55;;;8.73;;
59038;SDS011;44824;43.376;19.630;2023-07-16T07:14:17;14.70;;;8.38;;
59038;SDS011;44824;43.376;19.630;2023-07-16T07:16:54;14.18;;;8.13;;
59038;SDS011;44824;43.376;19.630;2023-07-16T07:25:14;15.52;;;8.38;;
59038;SDS011;44824;43.376;19.630;2023-07-16T07:27:43;13.93;;;7.85;;
59038;SDS011;44824;43.376;19.630;2023-07-16T07:30:11;12.00;;;7.72;;
59038;SDS011;44824;43.376;19.630;2023-07-16T07:32:40;12.80;;;8.02;;
59038;SDS011;44824;43.376;19.630;2023-07-16T07:35:09;16.35;;;8.35;;
59038;SDS011;44824;43.376;19.630;2023-07-16T07:37:48;14.07;;;7.90;;
59038;SDS011;44824;43.376;19.630;2023-07-16T07:40:16;13.30;;;7.75;;
59038;SDS011;44824;43.376;19.630;2023-07-16T07:42:49;13.35;;;7.80;;
59038;SDS011;44824;43.376;19.630;2023-07-16T07:45:36;12.50;;;8.05;;
59038;SDS011;44824;43.376;19.630;2023-07-16T07:48:03;13.90;;;7.97;;
59038;SDS011;44824;43.376;19.630;2023-07-16T07:50:33;12.93;;;7.65;;
59038;SDS011;44824;43.376;19.630;2023-07-16T07:53:07;12.50;;;7.35;;
59038;SDS011;44824;43.376;19.630;2023-07-16T07:55:34;12.05;;;7.20;;
59038;SDS011;44824;43.376;19.630;2023-07-16T08:00:28;11.82;;;7.07;;
59038;SDS011;44824;43.376;19.630;2023-07-16T08:02:54;13.52;;;7.22;;
59038;SDS011;44824;43.376;19.630;2023-07-16T08:08:22;11.82;;;7.35;;
59038;SDS011;44824;43.376;19.630;2023-07-16T08:10:58;14.82;;;7.18;;
59038;SDS011;44824;43.376;19.630;2023-07-16T08:15:51;13.32;;;6.65;;
59038;SDS011;44824;43.376;19.630;2023-07-16T08:18:31;12.32;;;6.65;;
59038;SDS011;44824;43.376;19.630;2023-07-16T08:20:58;12.15;;;6.72;;
59038;SDS011;44824;43.376;19.630;2023-07-16T08:23:35;10.77;;;6.40;;
59038;SDS011;44824;43.376;19.630;2023-07-16T08:26:02;13.48;;;6.40;;
59038;SDS011;44824;43.376;19.630;2023-07-16T08:28:30;10.95;;;6.20;;
59038;SDS011;44824;43.376;19.630;2023-07-16T08:31:04;17.20;;;6.50;;
59038;SDS011;44824;43.376;19.630;2023-07-16T08:33:43;10.82;;;5.75;;
59038;SDS011;44824;43.376;19.630;2023-07-16T08:36:19;13.60;;;5.90;;
59038;SDS011;44824;43.376;19.630;2023-07-16T08:38:46;10.55;;;6.18;;
59038;SDS011;44824;43.376;19.630;2023-07-16T08:41:14;11.10;;;5.55;;
59038;SDS011;44824;43.376;19.630;2023-07-16T08:43:47;10.68;;;5.60;;
59038;SDS011;44824;43.376;19.630;2023-07-16T08:46:14;10.35;;;5.78;;
59038;SDS011;44824;43.376;19.630;2023-07-16T08:48:44;10.63;;;5.85;;
59038;SDS011;44824;43.376;19.630;2023-07-16T08:51:14;9.98;;;5.60;;
59038;SDS011;44824;43.376;19.630;2023-07-16T08:53:41;12.13;;;6.13;;
59038;SDS011;44824;43.376;19.630;2023-07-16T08:56:09;11.77;;;6.07;;
59038;SDS011;44824;43.376;19.630;2023-07-16T08:58:36;14.02;;;5.95;;
59038;SDS011;44824;43.376;19.630;2023-07-16T09:01:05;12.63;;;5.63;;
59038;SDS011;44824;43.376;19.630;2023-07-16T09:03:35;10.27;;;6.20;;
59038;SDS011;44824;43.376;19.630;2023-07-16T09:06:02;10.52;;;6.35;;
59038;SDS011;44824;43.376;19.630;2023-07-16T09:08:36;9.77;;;5.78;;
59038;SDS011;44824;43.376;19.630;2023-07-16T09:11:02;17.50;;;6.25;;
59038;SDS011;44824;43.376;19.630;2023-07-16T09:13:29;13.18;;;6.38;;
59038;SDS011;44824;43.376;19.630;2023-07-16T09:15:57;9.30;;;5.25;;
59038;SDS011;44824;43.376;19.630;2023-07-16T09:21:00;10.98;;;5.88;;
59038;SDS011;44824;43.376;19.630;2023-07-16T09:23:29;11.10;;;5.60;;
59038;SDS011;44824;43.376;19.630;2023-07-16T09:25:56;8.70;;;5.40;;
59038;SDS011;44824;43.376;19.630;2023-07-16T09:28:41;10.68;;;5.43;;
59038;SDS011;44824;43.376;19.630;2023-07-16T09:31:07;10.63;;;5.65;;
59038;SDS011;44824;43.376;19.630;2023-07-16T09:38:59;10.55;;;4.90;;
59038;SDS011;44824;43.376;19.630;2023-07-16T09:41:26;9.77;;;4.90;;
59038;SDS011;44824;43.376;19.630;2023-07-16T09:43:53;9.55;;;4.60;;
59038;SDS011;44824;43.376;19.630;2023-07-16T09:46:25;8.07;;;4.43;;
59038;SDS011;44824;43.376;19.630;2023-07-16T09:48:51;11.73;;;4.55;;
59038;SDS011;44824;43.376;19.630;2023-07-16T09:51:26;12.75;;;4.60;;
59038;SDS011;44824;43.376;19.630;2023-07-16T09:53:56;12.43;;;4.85;;
59038;SDS011;44824;43.376;19.630;2023-07-16T09:56:23;9.73;;;4.35;;
59038;SDS011;44824;43.376;19.630;2023-07-16T14:33:57;5.30;;;1.77;;
59038;SDS011;44824;43.376;19.630;2023-07-16T14:42:53;3.50;;;1.50;;
59038;SDS011;44824;43.376;19.630;2023-07-16T14:45:19;4.00;;;1.38;;
59038;SDS011;44824;43.376;19.630;2023-07-16T14:47:57;4.75;;;1.48;;
59038;SDS011;44824;43.376;19.630;2023-07-16T14:56:41;57.50;;;4.13;;
59038;SDS011;44824;43.376;19.630;2023-07-16T14:59:07;4.60;;;1.60;;
59038;SDS011;44824;43.376;19.630;2023-07-16T15:01:52;28.45;;;2.90;;
59038;SDS011;44824;43.376;19.630;2023-07-16T15:04:24;10.50;;;1.90;;
59038;SDS011;44824;43.376;19.630;2023-07-16T15:07:15;8.25;;;2.25;;
59038;SDS011;44824;43.376;19.630;2023-07-16T15:10:04;10.13;;;2.40;;
59038;SDS011;44824;43.376;19.630;2023-07-16T15:13:05;6.03;;;2.15;;
59038;SDS011;44824;43.376;19.630;2023-07-16T15:16:11;31.00;;;3.08;;
59038;SDS011;44824;43.376;19.630;2023-07-16T15:19:02;23.02;;;2.33;;
59038;SDS011;44824;43.376;19.630;2023-07-16T15:25:10;19.50;;;2.58;;
59038;SDS011;44824;43.376;19.630;2023-07-16T15:27:50;4.47;;;1.75;;
59038;SDS011;44824;43.376;19.630;2023-07-16T15:39:05;6.60;;;2.20;;
59038;SDS011;44824;43.376;19.630;2023-07-16T15:41:51;7.55;;;2.20;;
59038;SDS011;44824;43.376;19.630;2023-07-16T16:15:49;7.47;;;2.40;;
59038;SDS011;44824;43.376;19.630;2023-07-16T16:18:28;6.13;;;2.92;;
59038;SDS011;44824;43.376;19.630;2023-07-16T16:31:33;7.45;;;2.70;;
59038;SDS011;44824;43.376;19.630;2023-07-16T16:34:19;9.43;;;3.20;;
59038;SDS011;44824;43.376;19.630;2023-07-16T16:39:45;12.35;;;3.33;;
59038;SDS011;44824;43.376;19.630;2023-07-16T16:45:07;10.93;;;2.92;;
59038;SDS011;44824;43.376;19.630;2023-07-16T16:50:20;40.70;;;3.90;;
59038;SDS011;44824;43.376;19.630;2023-07-16T16:52:53;82.65;;;5.80;;
59038;SDS011;44824;43.376;19.630;2023-07-16T16:55:27;42.30;;;4.55;;
59038;SDS011;44824;43.376;19.630;2023-07-16T17:00:45;156.95;;;8.50;;
59038;SDS011;44824;43.376;19.630;2023-07-16T17:03:32;30.85;;;3.92;;
59038;SDS011;44824;43.376;19.630;2023-07-16T17:06:03;13.38;;;3.25;;
59038;SDS011;44824;43.376;19.630;2023-07-16T17:11:35;12.07;;;3.45;;
59038;SDS011;44824;43.376;19.630;2023-07-16T17:14:04;10.77;;;3.38;;
59038;SDS011;44824;43.376;19.630;2023-07-16T17:16:32;9.93;;;3.55;;
59038;SDS011;44824;43.376;19.630;2023-07-16T17:19:00;12.23;;;4.10;;
59038;SDS011;44824;43.376;19.630;2023-07-16T17:21:27;12.70;;;5.43;;
59038;SDS011;44824;43.376;19.630;2023-07-16T17:27:11;24.60;;;4.78;;
59038;SDS011;44824;43.376;19.630;2023-07-16T17:29:45;10.50;;;3.60;;
59038;SDS011;44824;43.376;19.630;2023-07-16T17:32:28;9.68;;;4.30;;
59038;SDS011;44824;43.376;19.630;2023-07-16T17:35:00;10.20;;;4.60;;
59038;SDS011;44824;43.376;19.630;2023-07-16T17:40:35;16.60;;;4.13;;
59038;SDS011;44824;43.376;19.630;2023-07-16T17:46:08;49.35;;;4.90;;
59038;SDS011;44824;43.376;19.630;2023-07-16T17:48:57;39.50;;;4.93;;
59038;SDS011;44824;43.376;19.630;2023-07-16T17:51:46;11.75;;;3.90;;
59038;SDS011;44824;43.376;19.630;2023-07-16T17:54:13;10.50;;;4.10;;
59038;SDS011;44824;43.376;19.630;2023-07-16T17:56:48;13.30;;;4.22;;
59038;SDS011;44824;43.376;19.630;2023-07-16T17:59:29;60.10;;;6.18;;
59038;SDS011;44824;43.376;19.630;2023-07-16T18:13:56;37.00;;;4.65;;
59038;SDS011;44824;43.376;19.630;2023-07-16T18:28:07;38.78;;;4.00;;
59038;SDS011;44824;43.376;19.630;2023-07-16T18:39:30;25.52;;;8.48;;
59038;SDS011;44824;43.376;19.630;2023-07-16T18:41:57;14.15;;;5.30;;
59038;SDS011;44824;43.376;19.630;2023-07-16T18:44:32;18.30;;;7.57;;
59038;SDS011;44824;43.376;19.630;2023-07-16T18:47:04;12.85;;;5.95;;
59038;SDS011;44824;43.376;19.630;2023-07-16T18:55:54;20.85;;;8.18;;
59038;SDS011;44824;43.376;19.630;2023-07-16T18:58:27;23.42;;;9.05;;
59038;SDS011;44824;43.376;19.630;2023-07-16T19:02:01;23.35;;;9.52;;
59038;SDS011;44824;43.376;19.630;2023-07-16T19:10:23;22.00;;;7.90;;
59038;SDS011;44824;43.376;19.630;2023-07-16T19:12:53;14.80;;;7.50;;
59038;SDS011;44824;43.376;19.630;2023-07-16T19:15:23;20.13;;;7.45;;
59038;SDS011;44824;43.376;19.630;2023-07-16T19:18:07;12.90;;;7.05;;
59038;SDS011;44824;43.376;19.630;2023-07-16T19:21:02;16.02;;;8.15;;
59038;SDS011;44824;43.376;19.630;2023-07-16T19:24:02;13.90;;;7.28;;
59038;SDS011;44824;43.376;19.630;2023-07-16T19:29:20;15.77;;;7.00;;
59038;SDS011;44824;43.376;19.630;2023-07-16T19:31:47;19.73;;;7.20;;
59038;SDS011;44824;43.376;19.630;2023-07-16T19:37:20;12.57;;;7.30;;
59038;SDS011;44824;43.376;19.630;2023-07-16T19:39:52;14.57;;;7.15;;
59038;SDS011;44824;43.376;19.630;2023-07-16T19:42:29;11.98;;;6.97;;
59038;SDS011;44824;43.376;19.630;2023-07-16T19:44:58;13.88;;;6.65;;
59038;SDS011;44824;43.376;19.630;2023-07-16T19:50:28;14.32;;;6.95;;
59038;SDS011;44824;43.376;19.630;2023-07-16T19:53:21;14.75;;;7.57;;
59038;SDS011;44824;43.376;19.630;2023-07-16T19:55:51;16.55;;;7.68;;
59038;SDS011;44824;43.376;19.630;2023-07-16T20:00:59;13.50;;;6.63;;
59038;SDS011;44824;43.376;19.630;2023-07-16T20:03:45;12.52;;;6.68;;
59038;SDS011;44824;43.376;19.630;2023-07-16T20:06:33;12.10;;;6.57;;
59038;SDS011;44824;43.376;19.630;2023-07-16T20:11:44;15.18;;;7.40;;
59038;SDS011;44824;43.376;19.630;2023-07-16T20:14:46;23.23;;;7.97;;
59038;SDS011;44824;43.376;19.630;2023-07-16T20:17:19;19.63;;;7.90;;
59038;SDS011;44824;43.376;19.630;2023-07-16T20:20:02;15.48;;;7.32;;
59038;SDS011;44824;43.376;19.630;2023-07-16T20:22:35;14.50;;;7.38;;
59038;SDS011;44824;43.376;19.630;2023-07-16T20:27:56;13.77;;;8.10;;
59038;SDS011;44824;43.376;19.630;2023-07-16T20:30:39;16.73;;;7.88;;
59038;SDS011;44824;43.376;19.630;2023-07-16T20:33:25;15.00;;;7.75;;
59038;SDS011;44824;43.376;19.630;2023-07-16T20:35:51;13.15;;;7.45;;
59038;SDS011;44824;43.376;19.630;2023-07-16T20:38:21;13.43;;;7.88;;
59038;SDS011;44824;43.376;19.630;2023-07-16T20:41:03;12.50;;;7.60;;
59038;SDS011;44824;43.376;19.630;2023-07-16T20:43:40;11.25;;;7.57;;
59038;SDS011;44824;43.376;19.630;2023-07-16T20:46:21;12.43;;;7.50;;
59038;SDS011;44824;43.376;19.630;2023-07-16T20:49:13;15.77;;;7.70;;
59038;SDS011;44824;43.376;19.630;2023-07-16T20:51:45;13.18;;;7.68;;
59038;SDS011;44824;43.376;19.630;2023-07-16T20:54:14;14.57;;;7.93;;
59038;SDS011;44824;43.376;19.630;2023-07-16T20:56:43;13.13;;;7.68;;
59038;SDS011;44824;43.376;19.630;2023-07-16T21:02:19;14.07;;;8.00;;
59038;SDS011;44824;43.376;19.630;2023-07-16T21:04:45;20.33;;;8.43;;
59038;SDS011;44824;43.376;19.630;2023-07-16T21:07:34;12.38;;;8.05;;
59038;SDS011;44824;43.376;19.630;2023-07-16T21:13:04;16.30;;;8.30;;
59038;SDS011;44824;43.376;19.630;2023-07-16T21:15:36;16.88;;;8.00;;
59038;SDS011;44824;43.376;19.630;2023-07-16T21:18:03;14.27;;;8.23;;
59038;SDS011;44824;43.376;19.630;2023-07-16T21:20:52;12.90;;;8.07;;
59038;SDS011;44824;43.376;19.630;2023-07-16T21:29:22;12.30;;;8.02;;
59038;SDS011;44824;43.376;19.630;2023-07-16T21:32:05;16.10;;;9.02;;
59038;SDS011;44824;43.376;19.630;2023-07-16T21:34:45;12.13;;;8.18;;
59038;SDS011;44824;43.376;19.630;2023-07-16T21:37:18;12.45;;;8.45;;
59038;SDS011;44824;43.376;19.630;2023-07-16T21:39:49;18.48;;;8.95;;
59038;SDS011;44824;43.376;19.630;2023-07-16T21:45:04;16.88;;;8.57;;
59038;SDS011;44824;43.376;19.630;2023-07-16T21:47:42;13.23;;;8.55;;
59038;SDS011;44824;43.376;19.630;2023-07-16T21:50:09;13.93;;;9.32;;
59038;SDS011;44824;43.376;19.630;2023-07-16T22:01:20;14.38;;;9.98;;
59038;SDS011;44824;43.376;19.630;2023-07-16T22:03:47;17.33;;;9.38;;
59038;SDS011;44824;43.376;19.630;2023-07-16T22:08:56;13.90;;;9.20;;
59038;SDS011;44824;43.376;19.630;2023-07-16T22:14:15;13.32;;;9.23;;
59038;SDS011;44824;43.376;19.630;2023-07-16T22:16:56;16.15;;;9.40;;
59038;SDS011;44824;43.376;19.630;2023-07-16T22:19:53;12.77;;;9.20;;
59038;SDS011;44824;43.376;19.630;2023-07-16T22:22:32;19.17;;;9.88;;
59038;SDS011;44824;43.376;19.630;2023-07-16T22:25:09;21.13;;;10.40;;
59038;SDS011;44824;43.376;19.630;2023-07-16T22:27:36;19.95;;;10.43;;
59038;SDS011;44824;43.376;19.630;2023-07-16T22:30:22;15.13;;;9.52;;
59038;SDS011;44824;43.376;19.630;2023-07-16T22:36:16;13.90;;;9.63;;
59038;SDS011;44824;43.376;19.630;2023-07-16T22:38:57;12.85;;;9.30;;
59038;SDS011;44824;43.376;19.630;2023-07-16T22:41:37;14.50;;;9.05;;
59038;SDS011;44824;43.376;19.630;2023-07-16T22:44:03;15.48;;;9.30;;
59038;SDS011;44824;43.376;19.630;2023-07-16T22:46:47;18.27;;;10.18;;
59038;SDS011;44824;43.376;19.630;2023-07-16T22:49:17;16.90;;;9.77;;
59038;SDS011;44824;43.376;19.630;2023-07-16T22:51:45;13.60;;;9.38;;
59038;SDS011;44824;43.376;19.630;2023-07-16T23:05:14;16.65;;;9.85;;
59038;SDS011;44824;43.376;19.630;2023-07-16T23:07:44;12.55;;;9.80;;
59038;SDS011;44824;43.376;19.630;2023-07-16T23:13:40;13.50;;;9.75;;
59038;SDS011;44824;43.376;19.630;2023-07-16T23:16:16;16.23;;;10.38;;
59038;SDS011;44824;43.376;19.630;2023-07-16T23:18:59;13.00;;;9.57;;
59038;SDS011;44824;43.376;19.630;2023-07-16T23:21:27;15.48;;;10.65;;
59038;SDS011;44824;43.376;19.630;2023-07-16T23:26:57;17.40;;;10.02;;
59038;SDS011;44824;43.376;19.630;2023-07-16T23:29:45;14.10;;;10.07;;
59038;SDS011;44824;43.376;19.630;2023-07-16T23:32:27;16.52;;;10.05;;
59038;SDS011;44824;43.376;19.630;2023-07-16T23:35:06;15.68;;;9.68;;
59038;SDS011;44824;43.376;19.630;2023-07-16T23:37:45;13.75;;;9.80;;
59038;SDS011;44824;43.376;19.630;2023-07-16T23:52:21;11.85;;;8.98;;
